createdAt,value
2022-11-28T00:02:54.819Z,46.25
2022-11-28T00:17:56.782Z,49.08
2022-11-28T00:32:58.708Z,46.83
2022-11-28T00:48:00.586Z,46.50
2022-11-28T01:03:02.886Z,50.35
2022-11-28T01:18:04.928Z,46.50
2022-11-28T01:33:06.793Z,51.33
2022-11-28T01:48:10.533Z,50.38
2022-11-28T02:03:17.871Z,56.05
2022-11-28T02:18:50.573Z,58.00
2022-11-28T02:34:02.405Z,59.42
2022-11-28T02:49:13.074Z,56.10
2022-11-28T03:04:48.603Z,53.15
2022-11-28T03:19:58.690Z,55.42
2022-11-28T03:35:09.490Z,61.55
2022-11-28T03:50:18.156Z,63.90
2022-11-28T04:05:54.048Z,62.78
2022-11-28T04:21:03.750Z,65.93
2022-11-28T04:36:07.245Z,66.13
2022-11-28T04:51:31.325Z,64.05
2022-11-28T05:06:35.434Z,60.58
2022-11-28T05:21:37.296Z,49.67
2022-11-28T05:36:39.268Z,50.47
2022-11-28T05:51:41.129Z,52.72
2022-11-28T06:06:43.054Z,57.08
2022-11-28T06:21:45.085Z,54.70
2022-11-28T06:36:46.966Z,57.53
2022-11-28T06:51:48.930Z,56.45
2022-11-28T07:06:50.824Z,58.90
2022-11-28T07:21:52.702Z,56.72
2022-11-28T07:36:54.588Z,62.63
2022-11-28T07:51:56.566Z,64.93
2022-11-28T08:06:58.438Z,62.00
2022-11-28T08:22:00.334Z,54.78
2022-11-28T08:37:02.298Z,55.47
2022-11-28T08:52:05.152Z,52.78
2022-11-28T09:07:07.055Z,48.88
2022-11-28T09:22:09.033Z,45.70
2022-11-28T09:37:11.050Z,45.35
2022-11-28T09:52:22.401Z,42.80
2022-11-28T10:07:58.406Z,43.28
2022-11-28T10:23:07.928Z,39.10
2022-11-28T10:38:15.697Z,36.65
2022-11-28T10:53:35.701Z,34.03
2022-11-28T11:08:39.789Z,32.50
2022-11-28T11:23:42.503Z,30.08
2022-11-28T11:38:45.578Z,26.73
2022-11-28T11:53:47.677Z,25.58
2022-11-28T12:08:53.998Z,22.90
2022-11-28T12:24:16.096Z,24.17
2022-11-28T12:39:37.101Z,23.63
2022-11-28T12:54:57.999Z,24.33
2022-11-28T13:10:02.711Z,24.05
2022-11-28T13:25:24.284Z,24.50
2022-11-28T13:40:44.367Z,22.83
2022-11-28T13:55:52.258Z,21.55
2022-11-28T14:11:07.806Z,20.53
2022-11-28T14:26:30.936Z,22.02
2022-11-28T14:41:32.915Z,26.63
2022-11-28T14:56:34.836Z,21.30
2022-11-28T15:11:46.527Z,21.73
2022-11-28T15:26:50.769Z,21.60
2022-11-28T15:41:58.666Z,24.83
2022-11-28T15:57:01.430Z,26.10
2022-11-28T16:12:05.376Z,30.17
2022-11-28T16:27:07.334Z,31.50
2022-11-28T16:42:17.492Z,35.08
2022-11-28T16:57:20.477Z,32.80
2022-11-28T17:12:39.013Z,31.67
2022-11-28T17:27:40.916Z,29.73
2022-11-28T17:42:42.817Z,27.05
2022-11-28T17:57:46.491Z,25.98
2022-11-28T18:25:56.237Z,27.92
2022-11-28T18:41:05.217Z,27.30
2022-11-28T18:56:07.762Z,26.33
2022-11-28T19:11:15.499Z,28.27
2022-11-28T19:26:20.717Z,28.07
2022-11-28T19:41:23.057Z,32.10
2022-11-28T19:56:25.353Z,31.50
2022-11-28T20:11:30.809Z,34.53
2022-11-28T20:26:36.274Z,35.67
2022-11-28T20:41:38.279Z,33.45
2022-11-28T21:12:02.620Z,34.13
2022-11-28T21:27:04.774Z,37.42
2022-11-28T21:42:07.295Z,34.45
2022-11-28T21:57:09.212Z,38.35
2022-11-28T22:12:11.048Z,42.92
2022-11-28T22:27:12.966Z,40.55
2022-11-28T22:42:14.855Z,42.13
2022-11-28T22:57:17.054Z,41.35
2022-11-28T23:12:19.190Z,39.85
2022-11-28T23:27:21.107Z,39.63
2022-11-28T23:42:23.047Z,41.85
2022-11-28T23:57:24.926Z,40.22
